Terminal Aerodrome Forecast
Issued by NWS

Current Version | Previous Version | Text Only | Print | Product List | Glossary On
Versions: 1 2 3 4 5 6 7 8 9 10 11 12
000
FTUS44 KBMX 252331
TAFMGM
TAF
KMGM 252331Z 2600/2624 15003KT P6SM SKC
     FM261500 15004KT P6SM FEW050
     FM261900 16007KT P6SM VCTS SCT050CB=

USA.gov is the U.S. government's official web portal to all federal, state and local government web resources and services.